Terminal Aerodrome Forecast
Issued by NWS Los Angeles, CA

Home | Current Version | Previous Version | Text Only | Print | Product List | Glossary On
Versions: 1 2 3 4 5 6 7 8 9 10 11 12 13 14 15 16 17 18 19 20 21 22 23
000
FTUS46 KLOX 062300 RRA
TAFSMX
TAF
KSMX 062340Z 0700/0724 29018KT P6SM BKN028
     FM070300 30011KT P6SM OVC020
     FM070800 28007KT P6SM OVC018
     FM071200 22007KT P6SM OVC015
     FM071700 21005KT P6SM OVC020
     FM072100 29014KT P6SM OVC025=

USA.gov is the U.S. government's official web portal to all federal, state and local government web resources and services.